< < Back
Terminal Aerodrome Forecast


Current Version              Previous Versions:   1  2  3  4  5  6  7  8  9  

Terminal Aerodrome Forecast

565
FTUS42 KFFC 212300
TAFFTY
TAF
KFTY 212333Z 2200/2224 27004KT P6SM FEW060
     FM220200 27003KT P6SM FEW050 BKN100
     FM220600 29003KT P6SM FEW025 BKN060
     FM221100 33003KT P6SM SCT045
     FM221600 34010KT P6SM FEW250=

Latest METAR

784
SAUS70 KWBC 221400 RRG
MTRFTY
METAR KFTY 221353Z 33005KT 7SM BKN120 20/14 A3007 RMK AO2 SLP174
T02000139


USA.gov is the U.S. government's official web portal to all federal, state and local government web resources and services.